Time;durP1;ratioP1;P1;durP2;ratioP2;P2;SDS_P1;SDS_P2;PMS_P1;PMS_P2;Temp;Humidity;BMP_temperature;BMP_pressure;BME280_temperature;BME280_humidity;BME280_pressure;Samples;Min_cycle;Max_cycle;Signal;HPM_P1;HPM_P2
2024/03/18 00:00:40;;;;;;;30.30;18.70;;;;;;;6.88;100.00;100397.77;109370;1251;72697;-54
2024/03/18 00:03:07;;;;;;;29.60;19.60;;;;;;;6.88;100.00;100393.11;109364;1251;60117;-53
2024/03/18 00:05:35;;;;;;;25.80;17.70;;;;;;;6.89;100.00;100388.34;109412;1251;59820;-53
2024/03/18 00:08:02;;;;;;;27.90;17.50;;;;;;;6.88;100.00;100386.27;109413;1251;73226;-58
2024/03/18 00:10:30;;;;;;;25.40;17.70;;;;;;;6.88;100.00;100387.34;109325;1251;67998;-54
2024/03/18 00:12:57;;;;;;;26.20;17.80;;;;;;;6.87;100.00;100386.61;109362;1251;71838;-54
2024/03/18 00:15:25;;;;;;;26.10;17.40;;;;;;;6.88;100.00;100384.23;109334;1251;60886;-53
2024/03/18 00:17:52;;;;;;;26.00;16.80;;;;;;;6.90;100.00;100383.70;109377;1251;60658;-54
2024/03/18 00:20:20;;;;;;;30.80;18.20;;;;;;;6.94;100.00;100383.48;109356;1251;75468;-54
2024/03/18 00:22:47;;;;;;;27.80;17.60;;;;;;;6.95;100.00;100381.67;109345;1251;65674;-56
2024/03/18 00:25:14;;;;;;;29.40;18.90;;;;;;;6.93;100.00;100380.64;109341;1251;71929;-54
2024/03/18 00:27:42;;;;;;;29.60;18.70;;;;;;;6.94;100.00;100378.31;109340;1254;61745;-54
2024/03/18 00:30:11;;;;;;;27.70;17.70;;;;;;;6.94;100.00;100378.60;109410;1251;59676;-54
2024/03/18 00:32:41;;;;;;;26.60;17.80;;;;;;;6.96;100.00;100378.95;109358;1251;75959;-54
2024/03/18 00:35:13;;;;;;;29.20;18.10;;;;;;;6.96;100.00;100377.17;109441;1251;65709;-54
2024/03/18 00:37:41;;;;;;;30.60;18.20;;;;;;;6.96;100.00;100379.27;109379;1251;72977;-54
2024/03/18 00:40:09;;;;;;;30.00;20.00;;;;;;;6.98;100.00;100376.48;109367;1257;59743;-54
2024/03/18 00:42:36;;;;;;;31.30;20.80;;;;;;;6.98;100.00;100377.71;109367;1251;59658;-54
2024/03/18 00:45:04;;;;;;;28.00;17.90;;;;;;;6.97;100.00;100375.01;109433;1251;75528;-54
2024/03/18 00:47:33;;;;;;;30.70;19.90;;;;;;;6.98;100.00;100372.36;109375;1251;67380;-54
2024/03/18 00:50:01;;;;;;;31.60;18.10;;;;;;;6.98;100.00;100370.48;109364;1252;72723;-57
2024/03/18 00:52:28;;;;;;;33.00;19.80;;;;;;;6.98;100.00;100372.73;109335;1253;60171;-54
2024/03/18 00:54:55;;;;;;;31.10;20.00;;;;;;;6.97;100.00;100369.36;109369;1251;60306;-54
2024/03/18 00:57:23;;;;;;;31.20;19.40;;;;;;;6.96;100.00;100365.61;109380;1251;74189;-53
2024/03/18 00:59:51;;;;;;;34.70;20.40;;;;;;;6.96;100.00;100367.23;109400;1251;65642;-54
2024/03/18 01:02:18;;;;;;;32.20;19.80;;;;;;;6.91;100.00;100367.67;109394;1251;72727;-55
2024/03/18 01:04:46;;;;;;;31.50;19.10;;;;;;;6.88;100.00;100361.95;109342;1251;61773;-54
2024/03/18 01:07:13;;;;;;;30.20;19.20;;;;;;;6.87;100.00;100363.09;109370;1251;59799;-54
2024/03/18 01:09:43;;;;;;;31.60;19.00;;;;;;;6.89;100.00;100360.84;109418;1253;75498;-53
2024/03/18 01:12:10;;;;;;;27.00;17.60;;;;;;;6.88;100.00;100356.80;109378;1251;66932;-55
2024/03/18 01:14:38;;;;;;;31.20;18.50;;;;;;;6.87;100.00;100355.86;109400;1251;71426;-54
2024/03/18 01:17:05;;;;;;;30.60;19.10;;;;;;;6.86;100.00;100355.49;109358;1252;60992;-54
2024/03/18 01:19:36;;;;;;;33.80;18.20;;;;;;;6.83;100.00;100356.44;109391;1251;59697;-58
2024/03/18 01:22:03;;;;;;;28.40;18.60;;;;;;;6.80;100.00;100350.45;109373;1252;76134;-55
2024/03/18 01:24:32;;;;;;;28.10;17.30;;;;;;;6.80;100.00;100352.08;109411;1251;67284;-55
2024/03/18 01:26:59;;;;;;;24.30;16.00;;;;;;;6.79;100.00;100350.39;109430;1251;71399;-55
2024/03/18 01:29:27;;;;;;;27.80;17.00;;;;;;;6.79;100.00;100354.28;109390;1252;59770;-55
2024/03/18 01:31:54;;;;;;;25.40;17.00;;;;;;;6.79;100.00;100351.66;109416;1251;60067;-55
2024/03/18 01:34:21;;;;;;;25.80;16.70;;;;;;;6.79;100.00;100353.77;109364;1251;75543;-58
2024/03/18 01:36:49;;;;;;;29.10;17.60;;;;;;;6.77;100.00;100351.29;109352;1253;65645;-56
2024/03/18 01:39:19;;;;;;;27.80;16.70;;;;;;;6.77;100.00;100354.84;109371;1251;72747;-55
2024/03/18 01:41:47;;;;;;;30.60;18.30;;;;;;;6.77;100.00;100350.13;109391;1251;60191;-54
2024/03/18 01:44:14;;;;;;;25.40;16.60;;;;;;;6.76;100.00;100351.94;109405;1251;59990;-55
2024/03/18 01:46:42;;;;;;;27.20;16.60;;;;;;;6.76;100.00;100352.48;109455;1251;74290;-55
2024/03/18 01:49:10;;;;;;;28.00;17.80;;;;;;;6.76;100.00;100352.84;109388;1251;66244;-55
2024/03/18 01:51:37;;;;;;;24.20;16.60;;;;;;;6.74;100.00;100352.99;109316;1253;72745;-57
2024/03/18 01:54:05;;;;;;;27.80;17.30;;;;;;;6.73;100.00;100350.00;109401;1251;61389;-54
2024/03/18 01:56:33;;;;;;;27.80;17.30;;;;;;;6.73;100.00;100350.04;109437;1251;60259;-53
2024/03/18 01:59:03;;;;;;;26.30;17.40;;;;;;;6.72;100.00;100351.46;109411;1251;75442;-54
2024/03/18 02:01:31;;;;;;;26.30;17.10;;;;;;;6.73;100.00;100351.40;109440;1251;65542;-54
2024/03/18 02:04:09;;;;;;;26.60;17.70;;;;;;;6.72;100.00;100347.55;109380;1252;71379;-54
2024/03/18 02:06:38;;;;;;;27.60;17.50;;;;;;;6.71;100.00;100351.63;109437;1251;59753;-54
2024/03/18 02:09:05;;;;;;;31.20;18.80;;;;;;;6.69;100.00;100346.08;109228;1251;60086;-54
2024/03/18 02:11:32;;;;;;;29.90;19.20;;;;;;;6.68;100.00;100345.91;109429;1251;74274;-53
2024/03/18 02:14:00;;;;;;;29.10;17.70;;;;;;;6.67;100.00;100342.02;109448;1251;67074;-55
2024/03/18 02:16:28;;;;;;;26.50;17.40;;;;;;;6.67;100.00;100339.95;109368;1250;71326;-54
2024/03/18 02:18:55;;;;;;;26.40;17.20;;;;;;;6.67;100.00;100336.88;109343;1250;60594;-55
2024/03/18 02:21:23;;;;;;;28.80;17.90;;;;;;;6.67;100.00;100336.71;109400;1250;59897;-53
2024/03/18 02:23:50;;;;;;;24.30;15.80;;;;;;;6.66;100.00;100340.42;109429;1252;75502;-53
2024/03/18 02:26:18;;;;;;;26.90;16.70;;;;;;;6.65;100.00;100341.39;109443;1251;65621;-54
2024/03/18 02:28:46;;;;;;;27.30;16.30;;;;;;;6.64;100.00;100339.96;109263;1251;218718;-54
2024/03/18 02:31:14;;;;;;;29.00;16.30;;;;;;;6.63;100.00;100340.52;109433;1253;61266;-54
2024/03/18 02:33:42;;;;;;;23.90;16.60;;;;;;;6.62;100.00;100342.34;109420;1250;60270;-55
2024/03/18 02:36:09;;;;;;;24.30;16.00;;;;;;;6.62;100.00;100342.06;109411;1253;74240;-55
2024/03/18 02:38:37;;;;;;;26.70;16.90;;;;;;;6.61;100.00;100341.41;109426;1250;65627;-53
2024/03/18 02:41:04;;;;;;;26.20;17.20;;;;;;;6.61;100.00;100337.65;109395;1252;72719;-54
2024/03/18 02:43:32;;;;;;;26.30;16.50;;;;;;;6.59;100.00;100339.55;109445;1250;59819;-54
2024/03/18 02:45:59;;;;;;;27.40;16.80;;;;;;;6.59;100.00;100339.35;109454;1250;60113;-53
2024/03/18 02:48:29;;;;;;;23.00;15.80;;;;;;;6.57;100.00;100340.55;109408;1251;75552;-54
2024/03/18 02:50:57;;;;;;;23.60;15.50;;;;;;;6.56;100.00;100336.83;109401;1253;67552;-57
2024/03/18 02:53:24;;;;;;;25.30;16.80;;;;;;;6.57;100.00;100334.55;109392;1251;72714;-54
2024/03/18 02:55:54;;;;;;;25.30;16.20;;;;;;;6.56;100.00;100333.79;109416;1252;60267;-53
2024/03/18 02:58:22;;;;;;;27.20;16.80;;;;;;;6.53;100.00;100334.90;109475;1250;61055;-53
2024/03/18 03:00:51;;;;;;;27.20;18.30;;;;;;;6.54;100.00;100336.88;109423;1253;75564;-53
2024/03/18 03:03:18;;;;;;;27.30;17.10;;;;;;;6.54;100.00;100341.27;109445;1250;67022;-55
2024/03/18 03:05:46;;;;;;;24.80;15.70;;;;;;;6.52;100.00;100337.77;109415;1250;73258;-58
2024/03/18 03:08:13;;;;;;;26.50;17.10;;;;;;;6.52;100.00;100337.48;109535;1250;60125;-54
2024/03/18 03:10:40;;;;;;;24.30;16.00;;;;;;;6.51;100.00;100336.67;109452;1250;60286;-53
2024/03/18 03:13:08;;;;;;;24.50;15.60;;;;;;;6.52;100.00;100335.92;109526;1250;75458;-54
2024/03/18 03:15:35;;;;;;;23.30;15.70;;;;;;;6.51;100.00;100338.96;109475;1250;67417;-54
2024/03/18 03:18:03;;;;;;;23.50;16.10;;;;;;;6.50;100.00;100340.61;109463;1250;72727;-53
2024/03/18 03:20:30;;;;;;;26.30;16.10;;;;;;;6.50;100.00;100340.45;109482;1250;59795;-55
2024/03/18 03:22:58;;;;;;;26.80;17.40;;;;;;;6.49;100.00;100342.14;109436;1256;59959;-54
2024/03/18 03:25:26;;;;;;;24.80;17.00;;;;;;;6.48;100.00;100341.84;109448;1250;73779;-53
2024/03/18 03:27:59;;;;;;;27.00;17.20;;;;;;;6.47;100.00;100337.07;109435;1251;65284;-54
2024/03/18 03:30:27;;;;;;;24.90;16.30;;;;;;;6.47;100.00;100337.61;109386;1250;72768;-54
2024/03/18 03:32:54;;;;;;;25.60;16.70;;;;;;;6.46;100.00;100340.27;109419;1250;59855;-54
2024/03/18 03:35:22;;;;;;;23.30;15.00;;;;;;;6.47;100.00;100338.63;109379;1251;60217;-54
2024/03/18 03:37:49;;;;;;;22.80;15.00;;;;;;;6.47;100.00;100342.80;109409;1253;74975;-53
2024/03/18 03:40:16;;;;;;;22.80;14.60;;;;;;;6.46;100.00;100342.89;109435;1250;67069;-53
2024/03/18 03:42:44;;;;;;;24.60;16.00;;;;;;;6.47;100.00;100344.41;109444;1250;72791;-54
2024/03/18 03:45:11;;;;;;;26.40;16.80;;;;;;;6.46;100.00;100344.77;109411;1253;59802;-54
2024/03/18 03:47:39;;;;;;;25.80;16.40;;;;;;;6.45;100.00;100344.90;109462;1251;60255;-53
2024/03/18 03:50:09;;;;;;;22.30;14.90;;;;;;;6.44;100.00;100345.52;109388;1250;75475;-54
2024/03/18 03:52:36;;;;;;;22.90;14.70;;;;;;;6.42;100.00;100348.27;109410;1250;65278;-54
2024/03/18 03:55:04;;;;;;;24.50;14.60;;;;;;;6.42;100.00;100349.54;109403;1252;72768;-54
2024/03/18 03:57:31;;;;;;;24.70;16.70;;;;;;;6.43;100.00;100350.44;109472;1253;60144;-54
2024/03/18 03:59:59;;;;;;;28.40;17.70;;;;;;;6.44;100.00;100352.76;109377;1251;59789;-54
2024/03/18 04:02:26;;;;;;;28.20;18.00;;;;;;;6.45;100.00;100351.46;109457;1251;74220;-53
2024/03/18 04:04:55;;;;;;;27.70;18.60;;;;;;;6.45;100.00;100352.18;109422;1250;65537;-54
2024/03/18 04:07:26;;;;;;;27.60;18.30;;;;;;;6.45;100.00;100352.54;109432;1253;71691;-57
2024/03/18 04:09:53;;;;;;;26.80;18.30;;;;;;;6.44;100.00;100349.70;109389;1250;60207;-53
2024/03/18 04:12:20;;;;;;;28.80;18.20;;;;;;;6.43;100.00;100351.38;109407;1250;60296;-54
2024/03/18 04:14:49;;;;;;;30.10;19.10;;;;;;;6.42;100.00;100349.05;109450;1251;74324;-54
2024/03/18 04:17:17;;;;;;;27.20;17.90;;;;;;;6.42;100.00;100348.73;109459;1251;66788;-54
2024/03/18 04:19:44;;;;;;;28.10;18.80;;;;;;;6.43;100.00;100352.61;109391;1251;72777;-54
2024/03/18 04:22:11;;;;;;;27.60;18.00;;;;;;;6.45;100.00;100351.00;109438;1253;61754;-55
2024/03/18 04:24:39;;;;;;;27.10;17.10;;;;;;;6.48;100.00;100350.27;109463;1253;59737;-56
2024/03/18 04:27:06;;;;;;;24.80;16.60;;;;;;;6.52;100.00;100349.22;109478;1251;75489;-55
2024/03/18 04:29:34;;;;;;;26.40;17.10;;;;;;;6.55;100.00;100351.94;109466;1251;65995;-54
2024/03/18 04:32:05;;;;;;;26.80;17.40;;;;;;;6.61;100.00;100353.67;109465;1251;72748;-54
2024/03/18 04:34:32;;;;;;;28.40;16.60;;;;;;;6.68;100.00;100348.83;109457;1251;61048;-56
2024/03/18 04:36:59;;;;;;;25.80;16.20;;;;;;;6.75;100.00;100351.35;109436;1251;60122;-54
2024/03/18 04:39:27;;;;;;;24.10;16.90;;;;;;;6.86;100.00;100349.70;109488;1251;75493;-55
2024/03/18 04:41:55;;;;;;;25.20;16.90;;;;;;;6.99;100.00;100353.92;109450;1256;66924;-57
2024/03/18 04:44:22;;;;;;;23.60;16.00;;;;;;;7.10;100.00;100352.95;109487;1251;73011;-53
2024/03/18 04:46:49;;;;;;;25.40;16.10;;;;;;;7.21;100.00;100350.14;109430;1253;59717;-54
2024/03/18 04:49:18;;;;;;;24.90;15.80;;;;;;;7.32;100.00;100353.46;109536;1251;60268;-53
2024/03/18 04:51:46;;;;;;;28.40;15.80;;;;;;;7.43;100.00;100347.80;109420;1251;75484;-54
2024/03/18 04:54:13;;;;;;;26.20;16.50;;;;;;;7.57;100.00;100347.27;109524;1251;66863;-54
2024/03/18 04:56:40;;;;;;;24.40;17.30;;;;;;;7.70;100.00;100346.92;109432;1253;71460;-54
2024/03/18 04:59:08;;;;;;;22.90;15.70;;;;;;;7.84;100.00;100346.41;109458;1251;59817;-57
2024/03/18 05:01:35;;;;;;;22.80;15.90;;;;;;;7.99;100.00;100343.40;109448;1251;60653;-54
2024/03/18 05:04:03;;;;;;;22.50;14.60;;;;;;;8.15;100.00;100347.66;109444;1251;75612;-55
2024/03/18 05:06:30;;;;;;;22.80;15.20;;;;;;;8.31;100.00;100346.56;109529;1251;67422;-55
2024/03/18 05:08:58;;;;;;;22.90;14.20;;;;;;;8.48;100.00;100346.73;109498;1251;72719;-54
2024/03/18 05:11:26;;;;;;;20.20;14.60;;;;;;;8.66;100.00;100345.74;109470;1251;60547;-54
2024/03/18 05:13:54;;;;;;;20.70;14.70;;;;;;;8.86;100.00;100343.27;109496;1251;60078;-55
2024/03/18 05:16:23;;;;;;;20.40;14.60;;;;;;;9.08;100.00;100338.57;109417;1252;75437;-56
2024/03/18 05:18:50;;;;;;;20.60;14.60;;;;;;;9.29;100.00;100339.46;109425;1253;66909;-55
2024/03/18 05:21:18;;;;;;;20.10;13.80;;;;;;;9.50;100.00;100337.97;109437;1252;71790;-55
2024/03/18 05:23:45;;;;;;;22.40;15.10;;;;;;;9.71;100.00;100338.05;109439;1253;61896;-55
2024/03/18 05:26:13;;;;;;;17.90;12.90;;;;;;;9.91;100.00;100332.36;109427;1252;59798;-55
2024/03/18 05:28:40;;;;;;;15.80;12.50;;;;;;;10.14;100.00;100330.77;109440;1251;75555;-55
2024/03/18 05:31:08;;;;;;;18.60;13.30;;;;;;;10.39;100.00;100328.91;109445;1252;66888;-56
2024/03/18 05:33:35;;;;;;;17.00;13.10;;;;;;;10.62;100.00;100325.22;109350;1253;72705;-59
2024/03/18 05:36:03;;;;;;;17.40;12.90;;;;;;;10.77;100.00;100318.19;109370;1253;60595;-55
2024/03/18 05:38:30;;;;;;;19.40;12.50;;;;;;;10.85;100.00;100320.82;109375;1253;59933;-55
2024/03/18 05:40:58;;;;;;;18.30;12.40;;;;;;;10.88;100.00;100316.56;109412;1251;75497;-55
2024/03/18 05:43:26;;;;;;;17.20;12.10;;;;;;;10.88;100.00;100313.67;109402;1251;65808;-55
2024/03/18 05:45:53;;;;;;;16.50;12.60;;;;;;;10.91;100.00;100309.39;109393;1253;72695;-55
2024/03/18 05:48:20;;;;;;;23.60;15.80;;;;;;;10.97;100.00;100309.91;109445;1253;60122;-54
2024/03/18 05:50:48;;;;;;;32.20;20.20;;;;;;;11.06;100.00;100304.47;109440;1253;60144;-58
2024/03/18 05:53:16;;;;;;;22.80;14.70;;;;;;;11.18;100.00;100301.23;109371;1256;75489;-55
2024/03/18 05:55:43;;;;;;;17.30;12.50;;;;;;;11.28;100.00;100300.23;109482;1251;67117;-55
2024/03/18 05:58:10;;;;;;;22.30;14.60;;;;;;;11.38;100.00;100299.16;109387;1253;72723;-55
2024/03/18 06:00:38;;;;;;;18.90;13.30;;;;;;;11.53;100.00;100299.13;109405;1253;61727;-55
2024/03/18 06:03:06;;;;;;;20.30;13.40;;;;;;;11.70;100.00;100301.32;109424;1251;60109;-55
2024/03/18 06:05:34;;;;;;;16.60;12.50;;;;;;;11.92;100.00;100304.08;109435;1251;76509;-56
2024/03/18 06:08:02;;;;;;;16.90;13.20;;;;;;;12.15;100.00;100304.64;109415;1253;68927;-58
2024/03/18 06:10:29;;;;;;;15.50;11.90;;;;;;;12.37;100.00;100304.15;109465;1251;71434;-55
2024/03/18 06:12:57;;;;;;;17.20;13.10;;;;;;;12.55;100.00;100297.56;109471;1252;60264;-55
2024/03/18 06:15:24;;;;;;;16.80;13.40;;;;;;;12.71;100.00;100296.70;109362;1253;60059;-55
2024/03/18 06:17:52;;;;;;;17.30;11.10;;;;;;;12.90;100.00;100294.59;109406;1253;74159;-55
2024/03/18 06:20:19;;;;;;;15.40;11.90;;;;;;;13.14;100.00;100297.86;109427;1256;65635;-55
2024/03/18 06:22:49;;;;;;;14.80;10.60;;;;;;;13.40;100.00;100295.15;109377;1253;73444;-55
2024/03/18 06:28:02;;;;;;;15.20;11.10;;;;;;;14.46;100.00;100290.66;109377;1254;59836;-55
2024/03/18 06:30:29;;;;;;;12.80;9.70;;;;;;;15.24;100.00;100282.52;109426;1254;75572;-55
2024/03/18 06:32:57;;;;;;;12.70;9.60;;;;;;;16.00;100.00;100281.37;109373;1253;67266;-59
2024/03/18 06:35:25;;;;;;;13.40;10.10;;;;;;;16.66;100.00;100279.70;109347;1253;74644;-55
2024/03/18 06:37:52;;;;;;;13.70;10.30;;;;;;;17.27;100.00;100283.20;109385;1253;62363;-55
2024/03/18 06:40:19;;;;;;;14.30;11.00;;;;;;;17.74;100.00;100282.67;109383;1253;61115;-55
2024/03/18 06:42:51;;;;;;;15.10;13.00;;;;;;;18.07;100.00;100284.77;109388;1251;77590;-55
2024/03/18 06:45:19;;;;;;;12.60;10.40;;;;;;;18.52;100.00;100280.20;109415;1251;65966;-55
2024/03/18 06:47:47;;;;;;;15.00;10.20;;;;;;;19.16;100.00;100277.73;109397;1251;75036;-59
2024/03/18 06:50:16;;;;;;;14.30;10.50;;;;;;;19.71;91.73;100273.23;109378;1253;60818;-59
2024/03/18 06:52:44;;;;;;;12.30;10.80;;;;;;;19.91;80.81;100271.55;109371;1257;61639;-55
2024/03/18 06:55:11;;;;;;;11.50;10.30;;;;;;;20.11;76.55;100271.34;109393;1251;77891;-55
2024/03/18 06:57:39;;;;;;;11.10;9.70;;;;;;;20.40;70.09;100269.10;109435;1251;67078;-56
2024/03/18 07:00:07;;;;;;;10.40;9.30;;;;;;;20.77;68.42;100270.08;109392;1254;71802;-56
2024/03/18 07:02:35;;;;;;;14.40;10.60;;;;;;;21.32;64.03;100265.86;109403;1254;60474;-55
2024/03/18 07:05:03;;;;;;;10.90;9.30;;;;;;;21.80;57.69;100270.44;109257;1251;60954;-59
2024/03/18 07:07:30;;;;;;;10.40;9.00;;;;;;;22.04;55.10;100270.15;109393;1253;75510;-55
2024/03/18 07:09:58;;;;;;;9.30;8.30;;;;;;;22.11;51.95;100271.56;109455;1253;66844;-54
2024/03/18 07:12:26;;;;;;;10.00;8.90;;;;;;;22.06;51.34;100268.36;109393;1251;73789;-54
2024/03/18 07:14:53;;;;;;;10.50;8.50;;;;;;;22.25;51.64;100264.00;109492;1251;62479;-55
2024/03/18 07:17:20;;;;;;;10.30;8.70;;;;;;;22.62;49.95;100263.64;109480;1251;59801;-54
2024/03/18 07:19:48;;;;;;;11.00;9.80;;;;;;;22.95;48.32;100263.45;109467;1250;75548;-55
2024/03/18 07:22:36;;;;;;;11.80;9.50;;;;;;;22.97;45.71;100259.88;109480;1251;70064;-55
2024/03/18 07:25:05;;;;;;;10.70;9.60;;;;;;;22.79;46.03;100262.66;109459;1251;74802;-54
2024/03/18 07:27:32;;;;;;;9.10;8.20;;;;;;;22.58;45.66;100255.77;109414;1250;60098;-55
2024/03/18 07:30:02;;;;;;;8.40;7.50;;;;;;;22.30;45.59;100262.33;109395;1251;62125;-55
2024/03/18 07:32:31;;;;;;;9.30;7.60;;;;;;;21.94;45.41;100261.29;109332;1250;75591;-55
2024/03/18 07:34:58;;;;;;;11.20;8.70;;;;;;;21.48;46.54;100260.75;109391;1251;68936;-56
2024/03/18 07:37:37;;;;;;;10.10;9.10;;;;;;;21.04;47.88;100261.02;109395;1251;74120;-55
2024/03/18 07:40:07;;;;;;;10.30;8.50;;;;;;;20.56;49.02;100265.36;109477;1251;62524;-54
2024/03/18 07:42:34;;;;;;;9.20;6.90;;;;;;;20.05;50.85;100262.27;109467;1251;61551;-54
2024/03/18 07:45:02;;;;;;;9.30;8.30;;;;;;;19.64;52.90;100267.14;109431;1251;77733;-55
2024/03/18 07:47:30;;;;;;;9.90;7.00;;;;;;;19.21;55.09;100267.89;109470;1251;69163;-55
2024/03/18 07:49:57;;;;;;;9.30;7.40;;;;;;;18.92;58.58;100265.88;109448;1251;74141;-55
2024/03/18 07:52:25;;;;;;;8.90;7.00;;;;;;;18.79;59.96;100266.05;109431;1252;62238;-55
2024/03/18 07:54:52;;;;;;;8.00;5.90;;;;;;;18.68;61.01;100266.98;109486;1250;62195;-55
2024/03/18 07:57:20;;;;;;;8.60;6.90;;;;;;;18.83;63.10;100260.36;109492;1250;77472;-55
2024/03/18 07:59:47;;;;;;;8.10;6.80;;;;;;;19.23;65.45;100258.57;109488;1250;69001;-55
2024/03/18 08:02:15;;;;;;;8.50;6.90;;;;;;;19.84;63.14;100254.41;109489;1250;73853;-58
2024/03/18 08:04:42;;;;;;;7.90;6.30;;;;;;;20.44;59.73;100248.02;109481;1251;60723;-56
2024/03/18 08:07:10;;;;;;;7.80;5.80;;;;;;;20.98;56.15;100249.20;109467;1254;61585;-55
2024/03/18 08:09:37;;;;;;;8.00;6.30;;;;;;;21.31;50.71;100248.95;109360;1251;77290;-55
2024/03/18 08:12:05;;;;;;;7.50;5.90;;;;;;;21.13;48.69;100241.33;109517;1250;68855;-56
2024/03/18 08:14:36;;;;;;;7.20;5.60;;;;;;;20.81;48.49;100243.43;109492;1251;75874;-56
2024/03/18 08:17:04;;;;;;;8.10;5.80;;;;;;;20.43;49.20;100245.52;109457;1251;60222;-55
2024/03/18 08:19:32;;;;;;;7.30;5.90;;;;;;;19.95;49.76;100243.88;109525;1250;61242;-55
2024/03/18 08:22:00;;;;;;;7.40;5.90;;;;;;;19.44;51.47;100241.66;109495;1251;76138;-58
2024/03/18 08:24:48;;;;;;;8.00;5.60;;;;;;;18.93;55.28;100244.64;109440;1251;68179;-56
2024/03/18 08:27:16;;;;;;;8.20;6.20;;;;;;;18.60;58.24;100247.46;109494;1251;74959;-55
2024/03/18 08:29:43;;;;;;;8.50;5.70;;;;;;;18.37;61.10;100248.02;109495;1251;60266;-55
2024/03/18 08:32:11;;;;;;;7.40;6.00;;;;;;;18.20;62.98;100245.19;109539;1251;61107;-57
2024/03/18 08:34:39;;;;;;;7.90;6.00;;;;;;;18.12;65.32;100241.89;109477;1250;77599;-56
2024/03/18 08:37:06;;;;;;;7.30;5.40;;;;;;;18.03;65.29;100240.03;109534;1251;69541;-54
2024/03/18 08:39:34;;;;;;;8.00;5.80;;;;;;;17.89;65.19;100241.84;109365;1251;74829;-54
2024/03/18 08:42:02;;;;;;;7.50;6.00;;;;;;;17.69;65.66;100244.08;109437;1251;60933;-56
2024/03/18 08:44:29;;;;;;;6.90;4.50;;;;;;;17.41;67.94;100240.58;109512;1251;62777;-55
2024/03/18 08:46:57;;;;;;;8.00;5.60;;;;;;;17.27;70.96;100242.72;109504;1251;78063;-57
2024/03/18 08:49:25;;;;;;;14.40;11.10;;;;;;;17.01;70.85;100240.72;109455;1251;70481;-58
2024/03/18 08:51:52;;;;;;;9.00;6.50;;;;;;;16.68;72.54;100240.13;109484;1250;73799;-55
2024/03/18 08:54:20;;;;;;;6.70;5.40;;;;;;;16.40;74.73;100238.33;109444;1251;62482;-56
2024/03/18 08:56:47;;;;;;;6.90;4.80;;;;;;;16.23;78.53;100242.37;109530;1251;63644;-56
2024/03/18 08:59:15;;;;;;;8.40;5.40;;;;;;;16.13;80.90;100239.61;109519;1251;77551;-56
2024/03/18 09:01:43;;;;;;;8.80;6.40;;;;;;;15.94;82.87;100237.55;109519;1251;68712;-56
2024/03/18 09:04:10;;;;;;;7.60;5.50;;;;;;;15.79;86.16;100238.40;109409;1250;74946;-59
2024/03/18 09:06:38;;;;;;;7.00;5.10;;;;;;;15.59;89.55;100240.14;109449;1252;61290;-57
2024/03/18 09:09:06;;;;;;;7.20;4.70;;;;;;;15.43;92.88;100243.39;109529;1251;60703;-56
2024/03/18 09:11:33;;;;;;;6.80;4.90;;;;;;;15.33;95.38;100239.96;109477;1251;77945;-56
2024/03/18 09:14:01;;;;;;;6.60;4.90;;;;;;;15.26;98.01;100243.08;109486;1255;69154;-55
2024/03/18 09:16:28;;;;;;;15.40;8.40;;;;;;;15.21;100.00;100239.23;109438;1251;74889;-57
2024/03/18 09:18:56;;;;;;;9.10;5.50;;;;;;;15.15;100.00;100242.52;109425;1254;62342;-57
2024/03/18 09:21:23;;;;;;;6.50;4.60;;;;;;;15.06;100.00;100238.10;109495;1251;63070;-57
2024/03/18 09:23:51;;;;;;;8.10;5.00;;;;;;;14.97;100.00;100235.80;109432;1253;77518;-56
2024/03/18 09:26:18;;;;;;;6.20;4.40;;;;;;;14.89;100.00;100235.53;109452;1251;67842;-56
2024/03/18 09:28:46;;;;;;;6.70;4.10;;;;;;;14.81;100.00;100232.16;109466;1251;75806;-56
2024/03/18 09:31:13;;;;;;;7.30;4.50;;;;;;;14.73;100.00;100229.70;109421;1251;62548;-56
2024/03/18 09:33:41;;;;;;;5.80;3.70;;;;;;;14.65;100.00;100226.36;109467;1251;61049;-57
2024/03/18 09:36:08;;;;;;;7.60;4.40;;;;;;;14.60;100.00;100226.54;109404;1251;77302;-58
2024/03/18 09:38:36;;;;;;;6.20;4.10;;;;;;;14.55;100.00;100223.38;109466;1251;69031;-54
2024/03/18 09:41:05;;;;;;;5.50;4.00;;;;;;;14.47;100.00;100227.27;109483;1251;72884;-55
2024/03/18 09:43:36;;;;;;;6.70;4.30;;;;;;;14.32;100.00;100224.06;109296;1251;62296;-55
2024/03/18 09:46:04;;;;;;;5.70;3.80;;;;;;;14.20;100.00;100227.77;109475;1251;62686;-55
2024/03/18 09:48:32;;;;;;;6.30;3.90;;;;;;;14.10;100.00;100225.39;109444;1251;77685;-58
2024/03/18 09:50:59;;;;;;;9.60;5.70;;;;;;;14.05;100.00;100222.54;109428;1254;69126;-56
2024/03/18 09:53:28;;;;;;;7.30;4.30;;;;;;;14.04;100.00;100222.17;109439;1251;75072;-55
2024/03/18 09:55:56;;;;;;;7.20;5.10;;;;;;;14.02;100.00;100221.14;109417;1254;61851;-55
2024/03/18 09:58:25;;;;;;;7.20;5.20;;;;;;;13.92;100.00;100218.94;109489;1251;62131;-56
2024/03/18 10:00:52;;;;;;;9.80;6.10;;;;;;;13.85;100.00;100216.38;109449;1251;77657;-57
2024/03/18 10:03:20;;;;;;;9.90;5.20;;;;;;;13.82;100.00;100215.86;109414;1254;68684;-55
2024/03/18 10:05:48;;;;;;;9.20;5.80;;;;;;;13.77;100.00;100212.89;109309;1251;74866;-59
2024/03/18 10:08:16;;;;;;;7.70;4.90;;;;;;;13.71;100.00;100211.13;109279;1251;61146;-56
2024/03/18 10:10:46;;;;;;;7.40;5.00;;;;;;;13.65;100.00;100209.77;109435;1251;62110;-56
2024/03/18 10:13:14;;;;;;;7.60;4.80;;;;;;;13.59;100.00;100207.31;109457;1251;77541;-56
2024/03/18 10:15:42;;;;;;;8.10;5.20;;;;;;;13.60;100.00;100202.28;109435;1251;68858;-54
2024/03/18 10:18:11;;;;;;;8.50;5.40;;;;;;;13.65;100.00;100199.33;109338;1251;73738;-56
2024/03/18 10:20:39;;;;;;;8.30;4.80;;;;;;;13.75;100.00;100197.21;109325;1253;61553;-59
2024/03/18 10:23:12;;;;;;;13.20;6.60;;;;;;;13.83;100.00;100197.98;109370;1251;61067;-58
2024/03/18 10:25:40;;;;;;;9.10;5.40;;;;;;;13.92;100.00;100196.81;109211;1251;75077;-55
2024/03/18 10:28:09;;;;;;;6.90;4.60;;;;;;;14.00;100.00;100189.33;109385;1251;67895;-54
2024/03/18 10:30:37;;;;;;;7.60;5.10;;;;;;;14.14;100.00;100188.39;109392;1251;74686;-54
2024/03/18 10:33:06;;;;;;;6.70;4.40;;;;;;;14.29;100.00;100185.58;109332;1253;63393;-54
2024/03/18 10:35:34;;;;;;;12.80;6.70;;;;;;;14.45;100.00;100183.41;109440;1251;60377;-54
2024/03/18 10:38:06;;;;;;;9.80;5.70;;;;;;;14.59;100.00;100178.08;109378;1251;77329;-57
2024/03/18 10:40:38;;;;;;;10.00;5.90;;;;;;;14.76;100.00;100180.55;109307;1251;70842;-55
2024/03/18 10:43:13;;;;;;;12.50;7.50;;;;;;;14.93;100.00;100176.84;109351;1251;75061;-54
2024/03/18 10:45:46;;;;;;;14.40;8.30;;;;;;;15.07;100.00;100172.66;109280;1251;63252;-54
2024/03/18 10:48:17;;;;;;;15.90;8.80;;;;;;;15.21;100.00;100167.73;109377;1251;61114;-57
2024/03/18 10:50:45;;;;;;;14.30;8.70;;;;;;;15.38;100.00;100165.16;109351;1251;77504;-55
2024/03/18 10:53:21;;;;;;;9.50;5.40;;;;;;;15.54;100.00;100160.40;109275;1251;67712;-54
2024/03/18 10:55:50;;;;;;;8.20;4.50;;;;;;;15.71;100.00;100159.88;109385;1251;75773;-54
2024/03/18 10:58:27;;;;;;;8.30;5.20;;;;;;;15.83;100.00;100156.96;109326;1254;61922;-54
2024/03/18 11:00:55;;;;;;;6.00;4.30;;;;;;;15.94;99.66;100153.27;109336;1251;61467;-54
2024/03/18 11:03:24;;;;;;;6.50;4.30;;;;;;;15.95;94.77;100154.35;109290;1251;77339;-54
2024/03/18 11:05:54;;;;;;;10.90;6.80;;;;;;;15.88;93.93;100151.52;109449;1251;69356;-54
2024/03/18 11:08:23;;;;;;;8.20;5.70;;;;;;;15.86;96.46;100151.45;109485;1251;74662;-54
2024/03/18 11:10:55;;;;;;;7.70;5.40;;;;;;;15.87;94.63;100147.45;109186;1250;62450;-55